Dover, Kentucky
Current Conditions -  °F | °C
As of 6:15 PM on Sunday 21 Dec 2014 (Local Time) from KFGX Reporting Station
Clear Clear  
Wind Chill: -4°   Ceiling: Unl
Heat Index: -1°   Visibility: 10mi
Dew Point: -3°   Wind: 7mph
Humidity: 84%   Direction: 70°ENE
Pressure: 30.17"   Gusts: NA
Location:  38.76°N, 83.88°W
Report Text: KFGX 212315Z AUTO 07006KT 10SM CLR M01/M03 A3017 RMK AO2 T10061030
Loading
Personal Weather Stations






























Interactive Weather Map New forecast layout! Learn more

10-Day Weather Forecast

Advertisements
Track Severe Weather on mobile